sensor_id;sensor_type;location;lat;lon;timestamp;temperature;humidity
5962;DHT22;3007;50.770;0.250;2023-07-29T00:01:56;18.10;99.90
5962;DHT22;3007;50.770;0.250;2023-07-29T00:04:23;18.10;99.90
5962;DHT22;3007;50.770;0.250;2023-07-29T00:06:50;18.10;99.90
5962;DHT22;3007;50.770;0.250;2023-07-29T00:09:18;18.10;99.90
5962;DHT22;3007;50.770;0.250;2023-07-29T00:11:45;18.10;99.90
5962;DHT22;3007;50.770;0.250;2023-07-29T00:14:12;18.20;99.90
5962;DHT22;3007;50.770;0.250;2023-07-29T00:16:38;18.10;99.90
5962;DHT22;3007;50.770;0.250;2023-07-29T00:19:05;18.00;99.90
5962;DHT22;3007;50.770;0.250;2023-07-29T00:21:32;18.10;99.90
5962;DHT22;3007;50.770;0.250;2023-07-29T00:23:59;18.10;99.90
5962;DHT22;3007;50.770;0.250;2023-07-29T00:26:28;18.10;99.90
5962;DHT22;3007;50.770;0.250;2023-07-29T00:28:55;18.20;99.90
5962;DHT22;3007;50.770;0.250;2023-07-29T00:31:22;18.10;99.90
5962;DHT22;3007;50.770;0.250;2023-07-29T00:33:49;18.00;99.90
5962;DHT22;3007;50.770;0.250;2023-07-29T00:36:15;18.00;99.90
5962;DHT22;3007;50.770;0.250;2023-07-29T00:38:42;18.10;99.90
5962;DHT22;3007;50.770;0.250;2023-07-29T00:41:10;18.00;99.90
5962;DHT22;3007;50.770;0.250;2023-07-29T00:43:40;18.00;99.90
5962;DHT22;3007;50.770;0.250;2023-07-29T00:46:08;18.30;99.90
5962;DHT22;3007;50.770;0.250;2023-07-29T00:48:36;17.90;99.90
5962;DHT22;3007;50.770;0.250;2023-07-29T00:51:03;17.90;99.90
5962;DHT22;3007;50.770;0.250;2023-07-29T00:53:30;18.60;99.90
5962;DHT22;3007;50.770;0.250;2023-07-29T00:55:57;17.90;99.90
5962;DHT22;3007;50.770;0.250;2023-07-29T00:58:24;17.80;99.90
5962;DHT22;3007;50.770;0.250;2023-07-29T01:00:53;17.80;99.90
5962;DHT22;3007;50.770;0.250;2023-07-29T01:03:21;17.80;99.90
5962;DHT22;3007;50.770;0.250;2023-07-29T01:05:59;17.80;99.90
5962;DHT22;3007;50.770;0.250;2023-07-29T01:08:31;17.80;99.90
5962;DHT22;3007;50.770;0.250;2023-07-29T01:11:08;17.80;99.90
5962;DHT22;3007;50.770;0.250;2023-07-29T01:13:44;17.80;99.90
5962;DHT22;3007;50.770;0.250;2023-07-29T01:16:19;17.70;99.90
5962;DHT22;3007;50.770;0.250;2023-07-29T01:18:50;17.60;99.90
5962;DHT22;3007;50.770;0.250;2023-07-29T01:21:18;17.70;99.90
5962;DHT22;3007;50.770;0.250;2023-07-29T01:23:47;17.70;99.90
5962;DHT22;3007;50.770;0.250;2023-07-29T01:26:14;17.70;99.90
5962;DHT22;3007;50.770;0.250;2023-07-29T01:28:41;17.70;99.90
5962;DHT22;3007;50.770;0.250;2023-07-29T01:31:13;17.70;99.90
5962;DHT22;3007;50.770;0.250;2023-07-29T01:33:48;17.70;99.90
5962;DHT22;3007;50.770;0.250;2023-07-29T01:36:20;17.70;99.90
5962;DHT22;3007;50.770;0.250;2023-07-29T01:38:51;17.70;99.90
5962;DHT22;3007;50.770;0.250;2023-07-29T01:41:18;17.70;99.90
5962;DHT22;3007;50.770;0.250;2023-07-29T01:43:49;17.60;99.90
5962;DHT22;3007;50.770;0.250;2023-07-29T01:46:16;17.60;99.90
5962;DHT22;3007;50.770;0.250;2023-07-29T01:48:43;17.60;99.90
5962;DHT22;3007;50.770;0.250;2023-07-29T01:51:12;17.60;99.90
5962;DHT22;3007;50.770;0.250;2023-07-29T01:53:39;17.50;99.90
5962;DHT22;3007;50.770;0.250;2023-07-29T01:56:07;17.60;99.90
5962;DHT22;3007;50.770;0.250;2023-07-29T01:58:34;17.60;99.90
5962;DHT22;3007;50.770;0.250;2023-07-29T02:01:01;17.60;99.90
5962;DHT22;3007;50.770;0.250;2023-07-29T02:03:27;17.70;99.90
5962;DHT22;3007;50.770;0.250;2023-07-29T02:05:54;17.70;99.90
5962;DHT22;3007;50.770;0.250;2023-07-29T02:08:21;17.70;99.90
5962;DHT22;3007;50.770;0.250;2023-07-29T02:10:48;17.70;99.90
5962;DHT22;3007;50.770;0.250;2023-07-29T02:13:16;17.70;99.90
5962;DHT22;3007;50.770;0.250;2023-07-29T02:15:43;17.70;99.90
5962;DHT22;3007;50.770;0.250;2023-07-29T02:18:10;17.80;99.90
5962;DHT22;3007;50.770;0.250;2023-07-29T02:20:37;17.70;99.90
5962;DHT22;3007;50.770;0.250;2023-07-29T02:23:04;17.60;99.90
5962;DHT22;3007;50.770;0.250;2023-07-29T02:25:31;17.80;99.90
5962;DHT22;3007;50.770;0.250;2023-07-29T02:27:58;18.70;99.90
5962;DHT22;3007;50.770;0.250;2023-07-29T02:30:26;17.70;99.90
5962;DHT22;3007;50.770;0.250;2023-07-29T02:32:53;17.70;99.90
5962;DHT22;3007;50.770;0.250;2023-07-29T02:35:20;17.80;99.90
5962;DHT22;3007;50.770;0.250;2023-07-29T02:37:47;17.70;99.90
5962;DHT22;3007;50.770;0.250;2023-07-29T02:40:13;17.80;99.90
5962;DHT22;3007;50.770;0.250;2023-07-29T02:42:41;17.70;99.90
5962;DHT22;3007;50.770;0.250;2023-07-29T02:45:08;17.70;99.90
5962;DHT22;3007;50.770;0.250;2023-07-29T02:47:37;17.70;99.90
5962;DHT22;3007;50.770;0.250;2023-07-29T02:50:05;17.70;99.90
5962;DHT22;3007;50.770;0.250;2023-07-29T02:52:32;17.80;99.90
5962;DHT22;3007;50.770;0.250;2023-07-29T02:54:59;17.70;99.90
5962;DHT22;3007;50.770;0.250;2023-07-29T02:57:25;17.70;99.90
5962;DHT22;3007;50.770;0.250;2023-07-29T02:59:52;17.80;99.90
5962;DHT22;3007;50.770;0.250;2023-07-29T03:02:19;17.70;99.90
5962;DHT22;3007;50.770;0.250;2023-07-29T03:04:49;17.70;99.90
5962;DHT22;3007;50.770;0.250;2023-07-29T03:07:16;17.80;99.90
5962;DHT22;3007;50.770;0.250;2023-07-29T03:09:42;17.70;99.90
5962;DHT22;3007;50.770;0.250;2023-07-29T03:12:10;17.80;99.90
5962;DHT22;3007;50.770;0.250;2023-07-29T03:14:37;17.80;99.90
5962;DHT22;3007;50.770;0.250;2023-07-29T03:17:05;17.70;99.90
5962;DHT22;3007;50.770;0.250;2023-07-29T03:19:31;17.70;99.90
5962;DHT22;3007;50.770;0.250;2023-07-29T03:22:00;17.70;99.90
5962;DHT22;3007;50.770;0.250;2023-07-29T03:24:27;17.70;99.90
5962;DHT22;3007;50.770;0.250;2023-07-29T03:26:54;17.70;99.90
5962;DHT22;3007;50.770;0.250;2023-07-29T03:29:21;17.60;99.90
5962;DHT22;3007;50.770;0.250;2023-07-29T03:31:48;17.70;99.90
5962;DHT22;3007;50.770;0.250;2023-07-29T03:34:15;17.70;99.90
5962;DHT22;3007;50.770;0.250;2023-07-29T03:36:42;17.60;99.90
5962;DHT22;3007;50.770;0.250;2023-07-29T03:39:10;17.60;99.90
5962;DHT22;3007;50.770;0.250;2023-07-29T03:41:37;17.60;99.90
5962;DHT22;3007;50.770;0.250;2023-07-29T03:44:04;17.60;99.90
5962;DHT22;3007;50.770;0.250;2023-07-29T03:46:31;17.60;99.90
5962;DHT22;3007;50.770;0.250;2023-07-29T03:48:58;17.50;99.90
5962;DHT22;3007;50.770;0.250;2023-07-29T03:51:25;17.50;99.90
5962;DHT22;3007;50.770;0.250;2023-07-29T03:53:52;17.50;99.90
5962;DHT22;3007;50.770;0.250;2023-07-29T03:56:20;17.50;99.90
5962;DHT22;3007;50.770;0.250;2023-07-29T03:58:47;17.40;99.90
5962;DHT22;3007;50.770;0.250;2023-07-29T04:01:14;17.50;99.90
5962;DHT22;3007;50.770;0.250;2023-07-29T04:03:40;17.40;99.90
5962;DHT22;3007;50.770;0.250;2023-07-29T04:06:07;17.50;99.90
5962;DHT22;3007;50.770;0.250;2023-07-29T04:08:34;17.40;99.90
5962;DHT22;3007;50.770;0.250;2023-07-29T04:11:01;17.50;99.90
5962;DHT22;3007;50.770;0.250;2023-07-29T04:13:29;17.50;99.90
5962;DHT22;3007;50.770;0.250;2023-07-29T04:15:56;17.40;99.90
5962;DHT22;3007;50.770;0.250;2023-07-29T04:18:23;17.40;99.90
5962;DHT22;3007;50.770;0.250;2023-07-29T04:20:50;17.40;99.90
5962;DHT22;3007;50.770;0.250;2023-07-29T04:23:17;17.40;99.90
5962;DHT22;3007;50.770;0.250;2023-07-29T04:25:44;17.40;99.90
5962;DHT22;3007;50.770;0.250;2023-07-29T04:28:11;17.40;99.90
5962;DHT22;3007;50.770;0.250;2023-07-29T04:30:39;17.30;99.90
5962;DHT22;3007;50.770;0.250;2023-07-29T04:33:06;17.40;99.90
5962;DHT22;3007;50.770;0.250;2023-07-29T04:35:33;17.40;99.90
5962;DHT22;3007;50.770;0.250;2023-07-29T04:37:59;17.40;99.90
5962;DHT22;3007;50.770;0.250;2023-07-29T04:40:26;17.30;99.90
5962;DHT22;3007;50.770;0.250;2023-07-29T04:42:54;17.40;99.90
5962;DHT22;3007;50.770;0.250;2023-07-29T04:45:21;17.40;99.90
5962;DHT22;3007;50.770;0.250;2023-07-29T04:47:49;17.40;99.90
5962;DHT22;3007;50.770;0.250;2023-07-29T04:50:17;17.50;99.90
5962;DHT22;3007;50.770;0.250;2023-07-29T04:52:44;17.40;99.90
5962;DHT22;3007;50.770;0.250;2023-07-29T04:55:11;17.40;99.90
5962;DHT22;3007;50.770;0.250;2023-07-29T04:57:38;17.40;99.90
5962;DHT22;3007;50.770;0.250;2023-07-29T05:00:06;17.30;99.90
5962;DHT22;3007;50.770;0.250;2023-07-29T05:02:33;17.40;99.90
5962;DHT22;3007;50.770;0.250;2023-07-29T05:05:01;17.40;99.90
5962;DHT22;3007;50.770;0.250;2023-07-29T05:07:28;17.40;99.90
5962;DHT22;3007;50.770;0.250;2023-07-29T05:09:55;17.40;99.90
5962;DHT22;3007;50.770;0.250;2023-07-29T05:12:22;17.40;99.90
5962;DHT22;3007;50.770;0.250;2023-07-29T05:14:49;17.40;99.90
5962;DHT22;3007;50.770;0.250;2023-07-29T05:17:16;17.40;99.90
5962;DHT22;3007;50.770;0.250;2023-07-29T05:19:43;17.40;99.90
5962;DHT22;3007;50.770;0.250;2023-07-29T05:22:11;17.40;99.90
5962;DHT22;3007;50.770;0.250;2023-07-29T05:24:38;17.30;99.90
5962;DHT22;3007;50.770;0.250;2023-07-29T05:27:05;17.40;99.90
5962;DHT22;3007;50.770;0.250;2023-07-29T05:29:34;17.70;99.90
5962;DHT22;3007;50.770;0.250;2023-07-29T05:32:00;17.50;99.90
5962;DHT22;3007;50.770;0.250;2023-07-29T05:34:27;17.50;99.90
5962;DHT22;3007;50.770;0.250;2023-07-29T05:36:54;17.70;99.90
5962;DHT22;3007;50.770;0.250;2023-07-29T05:39:22;17.50;99.90
5962;DHT22;3007;50.770;0.250;2023-07-29T05:41:49;17.60;99.90
5962;DHT22;3007;50.770;0.250;2023-07-29T05:44:16;17.60;99.90
5962;DHT22;3007;50.770;0.250;2023-07-29T05:46:43;17.60;99.90
5962;DHT22;3007;50.770;0.250;2023-07-29T05:49:10;17.60;99.90
5962;DHT22;3007;50.770;0.250;2023-07-29T05:51:37;17.70;99.90
5962;DHT22;3007;50.770;0.250;2023-07-29T05:54:04;17.70;99.90
5962;DHT22;3007;50.770;0.250;2023-07-29T05:56:32;17.70;99.90
5962;DHT22;3007;50.770;0.250;2023-07-29T05:58:59;17.70;99.90
5962;DHT22;3007;50.770;0.250;2023-07-29T06:01:26;17.70;99.90
5962;DHT22;3007;50.770;0.250;2023-07-29T06:03:53;17.80;99.90
5962;DHT22;3007;50.770;0.250;2023-07-29T06:06:19;17.80;99.90
5962;DHT22;3007;50.770;0.250;2023-07-29T06:08:49;17.80;99.90
5962;DHT22;3007;50.770;0.250;2023-07-29T06:11:16;17.80;99.90
5962;DHT22;3007;50.770;0.250;2023-07-29T06:13:45;17.70;99.90
5962;DHT22;3007;50.770;0.250;2023-07-29T06:16:25;17.80;99.90
5962;DHT22;3007;50.770;0.250;2023-07-29T06:18:54;17.80;99.90
5962;DHT22;3007;50.770;0.250;2023-07-29T06:21:21;17.80;99.90
5962;DHT22;3007;50.770;0.250;2023-07-29T06:23:48;17.80;99.90
5962;DHT22;3007;50.770;0.250;2023-07-29T06:26:15;17.80;99.90
5962;DHT22;3007;50.770;0.250;2023-07-29T06:28:43;17.90;99.90
5962;DHT22;3007;50.770;0.250;2023-07-29T06:31:10;17.90;99.90
5962;DHT22;3007;50.770;0.250;2023-07-29T06:33:37;17.90;99.90
5962;DHT22;3007;50.770;0.250;2023-07-29T06:36:04;17.80;99.90
5962;DHT22;3007;50.770;0.250;2023-07-29T06:38:36;18.00;99.90
5962;DHT22;3007;50.770;0.250;2023-07-29T06:41:04;18.00;99.90
5962;DHT22;3007;50.770;0.250;2023-07-29T06:43:31;18.10;99.90
5962;DHT22;3007;50.770;0.250;2023-07-29T06:45:59;18.20;99.90
5962;DHT22;3007;50.770;0.250;2023-07-29T06:48:26;18.30;99.90
5962;DHT22;3007;50.770;0.250;2023-07-29T06:50:52;18.40;99.90
5962;DHT22;3007;50.770;0.250;2023-07-29T06:53:20;18.30;99.90
5962;DHT22;3007;50.770;0.250;2023-07-29T06:55:50;18.50;99.90
5962;DHT22;3007;50.770;0.250;2023-07-29T06:58:17;18.60;99.90
5962;DHT22;3007;50.770;0.250;2023-07-29T07:00:44;18.70;99.90
5962;DHT22;3007;50.770;0.250;2023-07-29T07:03:12;18.70;99.90
5962;DHT22;3007;50.770;0.250;2023-07-29T07:05:39;18.90;99.90
5962;DHT22;3007;50.770;0.250;2023-07-29T07:08:06;18.90;99.90
5962;DHT22;3007;50.770;0.250;2023-07-29T07:10:33;18.80;99.90
5962;DHT22;3007;50.770;0.250;2023-07-29T07:13:00;18.90;99.90
5962;DHT22;3007;50.770;0.250;2023-07-29T07:15:27;19.50;99.90
5962;DHT22;3007;50.770;0.250;2023-07-29T07:17:53;19.80;99.90
5962;DHT22;3007;50.770;0.250;2023-07-29T07:20:22;19.80;99.90
5962;DHT22;3007;50.770;0.250;2023-07-29T07:22:48;19.70;99.90
5962;DHT22;3007;50.770;0.250;2023-07-29T07:25:16;19.60;99.90
5962;DHT22;3007;50.770;0.250;2023-07-29T07:27:42;19.50;99.90
5962;DHT22;3007;50.770;0.250;2023-07-29T07:30:10;19.40;99.90
5962;DHT22;3007;50.770;0.250;2023-07-29T07:32:37;19.70;99.90
5962;DHT22;3007;50.770;0.250;2023-07-29T07:35:04;19.90;99.90
5962;DHT22;3007;50.770;0.250;2023-07-29T07:37:33;19.90;99.90
5962;DHT22;3007;50.770;0.250;2023-07-29T07:40:00;19.90;99.90
5962;DHT22;3007;50.770;0.250;2023-07-29T07:42:27;19.90;99.90
5962;DHT22;3007;50.770;0.250;2023-07-29T07:44:54;19.80;99.90
5962;DHT22;3007;50.770;0.250;2023-07-29T07:47:21;20.00;99.90
5962;DHT22;3007;50.770;0.250;2023-07-29T07:49:47;20.40;99.90
5962;DHT22;3007;50.770;0.250;2023-07-29T07:52:15;20.70;99.90
5962;DHT22;3007;50.770;0.250;2023-07-29T07:54:44;21.60;99.90
5962;DHT22;3007;50.770;0.250;2023-07-29T07:57:10;21.50;99.90
5962;DHT22;3007;50.770;0.250;2023-07-29T07:59:37;21.50;99.90
5962;DHT22;3007;50.770;0.250;2023-07-29T08:02:05;21.50;99.90
5962;DHT22;3007;50.770;0.250;2023-07-29T08:04:31;21.40;99.90
5962;DHT22;3007;50.770;0.250;2023-07-29T08:06:58;21.80;99.90
5962;DHT22;3007;50.770;0.250;2023-07-29T08:09:25;22.30;99.90
5962;DHT22;3007;50.770;0.250;2023-07-29T08:11:53;22.60;99.90
5962;DHT22;3007;50.770;0.250;2023-07-29T08:14:20;22.70;99.90
5962;DHT22;3007;50.770;0.250;2023-07-29T08:16:47;22.60;99.90
5962;DHT22;3007;50.770;0.250;2023-07-29T08:19:14;22.50;99.90
5962;DHT22;3007;50.770;0.250;2023-07-29T08:21:41;22.60;99.90
5962;DHT22;3007;50.770;0.250;2023-07-29T08:24:08;22.60;99.90
5962;DHT22;3007;50.770;0.250;2023-07-29T08:26:34;22.50;99.90
5962;DHT22;3007;50.770;0.250;2023-07-29T08:29:03;22.60;99.90
5962;DHT22;3007;50.770;0.250;2023-07-29T08:31:30;22.60;99.90
5962;DHT22;3007;50.770;0.250;2023-07-29T08:33:59;23.10;99.90
5962;DHT22;3007;50.770;0.250;2023-07-29T08:36:26;23.10;99.90
5962;DHT22;3007;50.770;0.250;2023-07-29T08:38:53;23.10;99.90
5962;DHT22;3007;50.770;0.250;2023-07-29T08:41:24;23.00;99.90
5962;DHT22;3007;50.770;0.250;2023-07-29T08:43:58;23.00;99.90
5962;DHT22;3007;50.770;0.250;2023-07-29T08:46:28;23.20;99.90
5962;DHT22;3007;50.770;0.250;2023-07-29T08:48:55;23.50;99.90
5962;DHT22;3007;50.770;0.250;2023-07-29T08:51:23;23.80;99.90
5962;DHT22;3007;50.770;0.250;2023-07-29T08:53:51;23.90;99.90
5962;DHT22;3007;50.770;0.250;2023-07-29T08:56:19;24.00;99.90
5962;DHT22;3007;50.770;0.250;2023-07-29T08:58:46;24.20;99.90
5962;DHT22;3007;50.770;0.250;2023-07-29T09:01:14;24.30;99.90
5962;DHT22;3007;50.770;0.250;2023-07-29T09:03:43;24.30;99.90
5962;DHT22;3007;50.770;0.250;2023-07-29T09:06:19;24.30;99.90
5962;DHT22;3007;50.770;0.250;2023-07-29T09:08:49;24.20;99.90
5962;DHT22;3007;50.770;0.250;2023-07-29T09:11:17;24.10;99.90
5962;DHT22;3007;50.770;0.250;2023-07-29T09:13:44;23.90;99.90
5962;DHT22;3007;50.770;0.250;2023-07-29T09:16:12;23.80;99.90
5962;DHT22;3007;50.770;0.250;2023-07-29T09:18:39;23.60;99.90
5962;DHT22;3007;50.770;0.250;2023-07-29T09:21:25;23.50;99.90
5962;DHT22;3007;50.770;0.250;2023-07-29T09:23:54;23.40;99.90
5962;DHT22;3007;50.770;0.250;2023-07-29T09:26:25;23.20;99.90
5962;DHT22;3007;50.770;0.250;2023-07-29T09:28:53;23.10;99.90
5962;DHT22;3007;50.770;0.250;2023-07-29T09:31:21;23.00;99.90
5962;DHT22;3007;50.770;0.250;2023-07-29T09:33:48;22.80;99.90
5962;DHT22;3007;50.770;0.250;2023-07-29T09:36:15;22.70;99.90
5962;DHT22;3007;50.770;0.250;2023-07-29T09:38:44;22.70;99.90
5962;DHT22;3007;50.770;0.250;2023-07-29T09:41:12;22.50;99.90
5962;DHT22;3007;50.770;0.250;2023-07-29T09:43:39;22.50;99.90
5962;DHT22;3007;50.770;0.250;2023-07-29T09:46:06;22.40;99.90
5962;DHT22;3007;50.770;0.250;2023-07-29T09:48:34;22.30;99.90
5962;DHT22;3007;50.770;0.250;2023-07-29T09:51:10;22.20;99.90
5962;DHT22;3007;50.770;0.250;2023-07-29T09:53:40;22.30;99.90
5962;DHT22;3007;50.770;0.250;2023-07-29T09:56:09;22.20;99.90
5962;DHT22;3007;50.770;0.250;2023-07-29T09:58:36;22.10;99.90
5962;DHT22;3007;50.770;0.250;2023-07-29T10:01:03;22.10;99.90
5962;DHT22;3007;50.770;0.250;2023-07-29T10:03:31;22.10;99.90
5962;DHT22;3007;50.770;0.250;2023-07-29T10:06:00;22.10;99.90
5962;DHT22;3007;50.770;0.250;2023-07-29T10:08:29;22.10;99.90
5962;DHT22;3007;50.770;0.250;2023-07-29T10:10:59;22.20;99.90
5962;DHT22;3007;50.770;0.250;2023-07-29T10:13:27;22.20;99.90
5962;DHT22;3007;50.770;0.250;2023-07-29T10:15:54;22.10;99.90
5962;DHT22;3007;50.770;0.250;2023-07-29T10:18:22;22.00;99.90
5962;DHT22;3007;50.770;0.250;2023-07-29T10:20:50;22.60;99.90
5962;DHT22;3007;50.770;0.250;2023-07-29T10:23:18;21.90;99.90
5962;DHT22;3007;50.770;0.250;2023-07-29T10:25:47;22.90;99.90
5962;DHT22;3007;50.770;0.250;2023-07-29T10:28:17;21.70;99.90
5962;DHT22;3007;50.770;0.250;2023-07-29T10:30:46;21.60;99.90
5962;DHT22;3007;50.770;0.250;2023-07-29T10:33:14;21.70;99.90
5962;DHT22;3007;50.770;0.250;2023-07-29T10:35:41;21.70;99.90
5962;DHT22;3007;50.770;0.250;2023-07-29T10:38:09;21.80;99.90
5962;DHT22;3007;50.770;0.250;2023-07-29T10:40:54;21.60;99.90
5962;DHT22;3007;50.770;0.250;2023-07-29T10:43:25;21.60;99.90
5962;DHT22;3007;50.770;0.250;2023-07-29T10:45:57;21.50;99.90
5962;DHT22;3007;50.770;0.250;2023-07-29T10:48:41;21.40;99.90
5962;DHT22;3007;50.770;0.250;2023-07-29T10:51:29;21.30;99.90
5962;DHT22;3007;50.770;0.250;2023-07-29T10:53:59;21.30;99.90
5962;DHT22;3007;50.770;0.250;2023-07-29T10:56:29;21.20;99.90
5962;DHT22;3007;50.770;0.250;2023-07-29T10:58:58;21.20;99.90
5962;DHT22;3007;50.770;0.250;2023-07-29T11:01:30;21.20;99.90
5962;DHT22;3007;50.770;0.250;2023-07-29T11:04:25;21.20;99.90
5962;DHT22;3007;50.770;0.250;2023-07-29T11:07:21;21.10;99.90
5962;DHT22;3007;50.770;0.250;2023-07-29T11:09:54;21.10;99.90
5962;DHT22;3007;50.770;0.250;2023-07-29T11:12:38;21.00;99.90
5962;DHT22;3007;50.770;0.250;2023-07-29T11:15:13;21.10;99.90
5962;DHT22;3007;50.770;0.250;2023-07-29T11:17:43;21.20;99.90
5962;DHT22;3007;50.770;0.250;2023-07-29T11:20:11;21.20;99.90
5962;DHT22;3007;50.770;0.250;2023-07-29T11:22:39;21.20;99.90
5962;DHT22;3007;50.770;0.250;2023-07-29T11:25:08;21.30;99.90
5962;DHT22;3007;50.770;0.250;2023-07-29T11:27:36;21.30;99.90
5962;DHT22;3007;50.770;0.250;2023-07-29T11:30:04;21.30;99.90
5962;DHT22;3007;50.770;0.250;2023-07-29T11:32:32;21.30;99.90
5962;DHT22;3007;50.770;0.250;2023-07-29T11:35:03;21.20;99.90
5962;DHT22;3007;50.770;0.250;2023-07-29T11:37:30;21.20;99.90
5962;DHT22;3007;50.770;0.250;2023-07-29T11:39:59;21.40;99.90
5962;DHT22;3007;50.770;0.250;2023-07-29T11:42:26;21.40;99.90
5962;DHT22;3007;50.770;0.250;2023-07-29T11:44:53;21.50;99.90
5962;DHT22;3007;50.770;0.250;2023-07-29T11:47:20;21.50;99.90
5962;DHT22;3007;50.770;0.250;2023-07-29T11:49:47;21.50;99.90
5962;DHT22;3007;50.770;0.250;2023-07-29T11:52:15;21.40;99.90
5962;DHT22;3007;50.770;0.250;2023-07-29T11:54:44;21.40;99.90
5962;DHT22;3007;50.770;0.250;2023-07-29T11:57:12;21.30;99.90
5962;DHT22;3007;50.770;0.250;2023-07-29T11:59:40;21.30;99.90
5962;DHT22;3007;50.770;0.250;2023-07-29T12:02:11;21.30;99.90
5962;DHT22;3007;50.770;0.250;2023-07-29T12:04:39;21.40;99.90
5962;DHT22;3007;50.770;0.250;2023-07-29T12:07:06;21.30;99.90
5962;DHT22;3007;50.770;0.250;2023-07-29T12:09:35;21.30;99.90
5962;DHT22;3007;50.770;0.250;2023-07-29T12:12:03;21.30;99.90
5962;DHT22;3007;50.770;0.250;2023-07-29T12:14:31;21.20;99.90
5962;DHT22;3007;50.770;0.250;2023-07-29T12:17:00;21.30;99.90
5962;DHT22;3007;50.770;0.250;2023-07-29T12:19:31;21.30;99.90
5962;DHT22;3007;50.770;0.250;2023-07-29T12:21:58;21.30;99.90
5962;DHT22;3007;50.770;0.250;2023-07-29T12:24:25;21.30;99.90
5962;DHT22;3007;50.770;0.250;2023-07-29T12:26:54;21.20;99.90
5962;DHT22;3007;50.770;0.250;2023-07-29T12:29:21;21.10;99.90
5962;DHT22;3007;50.770;0.250;2023-07-29T12:31:48;21.10;99.90
5962;DHT22;3007;50.770;0.250;2023-07-29T12:34:18;21.20;99.90
5962;DHT22;3007;50.770;0.250;2023-07-29T12:36:47;21.40;99.90
5962;DHT22;3007;50.770;0.250;2023-07-29T12:39:21;21.40;99.90
5962;DHT22;3007;50.770;0.250;2023-07-29T12:41:50;21.60;99.90
5962;DHT22;3007;50.770;0.250;2023-07-29T12:44:19;21.70;99.90
5962;DHT22;3007;50.770;0.250;2023-07-29T12:46:46;22.00;99.90
5962;DHT22;3007;50.770;0.250;2023-07-29T12:49:13;22.00;99.90
5962;DHT22;3007;50.770;0.250;2023-07-29T12:51:41;21.80;99.90
5962;DHT22;3007;50.770;0.250;2023-07-29T12:54:08;21.70;99.90
5962;DHT22;3007;50.770;0.250;2023-07-29T12:56:35;21.60;99.90
5962;DHT22;3007;50.770;0.250;2023-07-29T12:59:02;21.50;99.90
5962;DHT22;3007;50.770;0.250;2023-07-29T13:01:30;21.50;99.90
5962;DHT22;3007;50.770;0.250;2023-07-29T13:03:57;21.40;99.90
5962;DHT22;3007;50.770;0.250;2023-07-29T13:06:24;21.50;99.90
5962;DHT22;3007;50.770;0.250;2023-07-29T13:08:52;21.60;99.90
5962;DHT22;3007;50.770;0.250;2023-07-29T13:11:19;21.70;99.90
5962;DHT22;3007;50.770;0.250;2023-07-29T13:13:45;21.70;99.90
5962;DHT22;3007;50.770;0.250;2023-07-29T13:16:12;22.20;99.90
5962;DHT22;3007;50.770;0.250;2023-07-29T13:18:41;21.80;99.90
5962;DHT22;3007;50.770;0.250;2023-07-29T13:21:09;21.80;99.90
5962;DHT22;3007;50.770;0.250;2023-07-29T13:23:36;21.70;99.90
5962;DHT22;3007;50.770;0.250;2023-07-29T13:26:03;21.70;99.90
5962;DHT22;3007;50.770;0.250;2023-07-29T13:28:30;21.70;99.90
5962;DHT22;3007;50.770;0.250;2023-07-29T13:30:57;21.60;99.90
5962;DHT22;3007;50.770;0.250;2023-07-29T13:33:24;21.60;99.90
5962;DHT22;3007;50.770;0.250;2023-07-29T13:35:52;21.60;99.90
5962;DHT22;3007;50.770;0.250;2023-07-29T13:38:19;21.50;99.90
5962;DHT22;3007;50.770;0.250;2023-07-29T13:40:46;21.40;99.90
5962;DHT22;3007;50.770;0.250;2023-07-29T13:43:16;21.40;99.90
5962;DHT22;3007;50.770;0.250;2023-07-29T13:45:43;21.30;99.90
5962;DHT22;3007;50.770;0.250;2023-07-29T13:48:10;21.40;99.90
5962;DHT22;3007;50.770;0.250;2023-07-29T13:50:37;21.40;99.90
5962;DHT22;3007;50.770;0.250;2023-07-29T13:53:05;21.40;99.90
5962;DHT22;3007;50.770;0.250;2023-07-29T13:55:32;21.50;99.90
5962;DHT22;3007;50.770;0.250;2023-07-29T13:57:59;21.50;99.90
5962;DHT22;3007;50.770;0.250;2023-07-29T14:00:26;21.70;99.90
5962;DHT22;3007;50.770;0.250;2023-07-29T14:02:52;21.70;99.90
5962;DHT22;3007;50.770;0.250;2023-07-29T14:05:19;21.90;99.90
5962;DHT22;3007;50.770;0.250;2023-07-29T14:07:46;22.00;99.90
5962;DHT22;3007;50.770;0.250;2023-07-29T14:10:15;22.10;99.90
5962;DHT22;3007;50.770;0.250;2023-07-29T14:12:42;22.10;99.90
5962;DHT22;3007;50.770;0.250;2023-07-29T14:15:09;22.10;99.90
5962;DHT22;3007;50.770;0.250;2023-07-29T14:17:35;22.10;99.90
5962;DHT22;3007;50.770;0.250;2023-07-29T14:20:02;22.20;99.90
5962;DHT22;3007;50.770;0.250;2023-07-29T14:22:30;22.00;99.90
5962;DHT22;3007;50.770;0.250;2023-07-29T14:24:57;22.00;99.90
5962;DHT22;3007;50.770;0.250;2023-07-29T14:27:25;22.00;99.90
5962;DHT22;3007;50.770;0.250;2023-07-29T14:29:52;21.90;99.90
5962;DHT22;3007;50.770;0.250;2023-07-29T14:32:19;21.80;99.90
5962;DHT22;3007;50.770;0.250;2023-07-29T14:34:46;21.60;99.90
5962;DHT22;3007;50.770;0.250;2023-07-29T14:37:12;21.50;99.90
5962;DHT22;3007;50.770;0.250;2023-07-29T14:39:39;21.40;99.90
5962;DHT22;3007;50.770;0.250;2023-07-29T14:42:06;21.30;99.90
5962;DHT22;3007;50.770;0.250;2023-07-29T14:44:34;21.20;99.90
5962;DHT22;3007;50.770;0.250;2023-07-29T14:47:01;21.30;99.90
5962;DHT22;3007;50.770;0.250;2023-07-29T14:49:28;21.20;99.90
5962;DHT22;3007;50.770;0.250;2023-07-29T14:51:55;21.20;99.90
5962;DHT22;3007;50.770;0.250;2023-07-29T14:54:22;21.10;99.90
5962;DHT22;3007;50.770;0.250;2023-07-29T14:56:49;21.10;99.90
5962;DHT22;3007;50.770;0.250;2023-07-29T14:59:16;21.00;99.90
5962;DHT22;3007;50.770;0.250;2023-07-29T15:01:44;21.10;99.90
5962;DHT22;3007;50.770;0.250;2023-07-29T15:04:11;21.00;99.90
5962;DHT22;3007;50.770;0.250;2023-07-29T15:06:37;21.00;99.90
5962;DHT22;3007;50.770;0.250;2023-07-29T15:09:05;20.90;99.90
5962;DHT22;3007;50.770;0.250;2023-07-29T15:11:32;20.80;99.90
5962;DHT22;3007;50.770;0.250;2023-07-29T15:13:59;20.80;99.90
5962;DHT22;3007;50.770;0.250;2023-07-29T15:16:26;20.90;99.90
5962;DHT22;3007;50.770;0.250;2023-07-29T15:18:54;20.90;99.90
5962;DHT22;3007;50.770;0.250;2023-07-29T15:21:21;21.00;99.90
5962;DHT22;3007;50.770;0.250;2023-07-29T15:23:48;20.90;99.90
5962;DHT22;3007;50.770;0.250;2023-07-29T15:26:15;20.80;99.90
5962;DHT22;3007;50.770;0.250;2023-07-29T15:28:42;20.80;99.90
5962;DHT22;3007;50.770;0.250;2023-07-29T15:31:09;20.90;99.90
5962;DHT22;3007;50.770;0.250;2023-07-29T15:33:36;20.90;99.90
5962;DHT22;3007;50.770;0.250;2023-07-29T15:36:04;20.90;99.90
5962;DHT22;3007;50.770;0.250;2023-07-29T15:38:31;20.90;99.90
5962;DHT22;3007;50.770;0.250;2023-07-29T15:40:59;20.80;99.90
5962;DHT22;3007;50.770;0.250;2023-07-29T15:43:26;20.80;99.90
5962;DHT22;3007;50.770;0.250;2023-07-29T15:45:53;20.80;99.90
5962;DHT22;3007;50.770;0.250;2023-07-29T15:48:20;20.70;99.90
5962;DHT22;3007;50.770;0.250;2023-07-29T15:50:47;20.60;99.90
5962;DHT22;3007;50.770;0.250;2023-07-29T15:53:15;20.60;99.90
5962;DHT22;3007;50.770;0.250;2023-07-29T15:55:42;20.50;99.90
5962;DHT22;3007;50.770;0.250;2023-07-29T15:58:09;20.40;99.90
5962;DHT22;3007;50.770;0.250;2023-07-29T16:00:35;20.40;99.90
5962;DHT22;3007;50.770;0.250;2023-07-29T16:03:02;20.40;99.90
5962;DHT22;3007;50.770;0.250;2023-07-29T16:05:29;20.30;99.90
5962;DHT22;3007;50.770;0.250;2023-07-29T16:07:56;20.30;99.90